sensor_id;sensor_type;location;lat;lon;timestamp;P1;durP1;ratioP1;P2;durP2;ratioP2
50531;SDS011;36483;37.396;-122.212;2022-11-20T00:02:00;3.20;;;2.13;;
50531;SDS011;36483;37.396;-122.212;2022-11-20T00:04:26;3.47;;;2.17;;
50531;SDS011;36483;37.396;-122.212;2022-11-20T00:06:52;4.53;;;2.25;;
50531;SDS011;36483;37.396;-122.212;2022-11-20T00:09:18;3.65;;;2.20;;
50531;SDS011;36483;37.396;-122.212;2022-11-20T00:11:44;4.68;;;2.50;;
50531;SDS011;36483;37.396;-122.212;2022-11-20T00:14:10;3.58;;;2.13;;
50531;SDS011;36483;37.396;-122.212;2022-11-20T00:16:36;4.53;;;2.20;;
50531;SDS011;36483;37.396;-122.212;2022-11-20T00:19:02;6.00;;;2.35;;
50531;SDS011;36483;37.396;-122.212;2022-11-20T00:21:29;5.28;;;2.30;;
50531;SDS011;36483;37.396;-122.212;2022-11-20T00:23:56;4.32;;;2.20;;
50531;SDS011;36483;37.396;-122.212;2022-11-20T00:26:23;3.42;;;2.10;;
50531;SDS011;36483;37.396;-122.212;2022-11-20T00:28:54;3.78;;;2.10;;
50531;SDS011;36483;37.396;-122.212;2022-11-20T00:31:21;5.43;;;2.55;;
50531;SDS011;36483;37.396;-122.212;2022-11-20T00:33:47;3.60;;;2.30;;
50531;SDS011;36483;37.396;-122.212;2022-11-20T00:36:17;3.47;;;2.25;;
50531;SDS011;36483;37.396;-122.212;2022-11-20T00:38:44;4.25;;;2.60;;
50531;SDS011;36483;37.396;-122.212;2022-11-20T00:41:12;4.00;;;2.50;;
50531;SDS011;36483;37.396;-122.212;2022-11-20T00:43:39;3.83;;;2.70;;
50531;SDS011;36483;37.396;-122.212;2022-11-20T00:46:06;4.63;;;2.60;;
50531;SDS011;36483;37.396;-122.212;2022-11-20T00:48:34;4.47;;;2.72;;
50531;SDS011;36483;37.396;-122.212;2022-11-20T00:51:00;6.45;;;2.92;;
50531;SDS011;36483;37.396;-122.212;2022-11-20T00:53:27;5.90;;;2.70;;
50531;SDS011;36483;37.396;-122.212;2022-11-20T00:55:56;5.00;;;2.95;;
50531;SDS011;36483;37.396;-122.212;2022-11-20T00:58:23;6.55;;;2.97;;
50531;SDS011;36483;37.396;-122.212;2022-11-20T01:00:50;5.20;;;2.40;;
50531;SDS011;36483;37.396;-122.212;2022-11-20T01:03:17;5.75;;;2.65;;
50531;SDS011;36483;37.396;-122.212;2022-11-20T01:05:43;4.60;;;2.60;;
50531;SDS011;36483;37.396;-122.212;2022-11-20T01:08:09;4.40;;;2.60;;
50531;SDS011;36483;37.396;-122.212;2022-11-20T01:10:37;4.88;;;2.58;;
50531;SDS011;36483;37.396;-122.212;2022-11-20T01:13:04;5.00;;;2.53;;
50531;SDS011;36483;37.396;-122.212;2022-11-20T01:15:49;3.85;;;2.63;;
50531;SDS011;36483;37.396;-122.212;2022-11-20T01:18:15;5.60;;;2.60;;
50531;SDS011;36483;37.396;-122.212;2022-11-20T01:20:41;5.85;;;2.97;;
50531;SDS011;36483;37.396;-122.212;2022-11-20T01:23:07;6.78;;;2.70;;
50531;SDS011;36483;37.396;-122.212;2022-11-20T01:25:33;3.53;;;2.63;;
50531;SDS011;36483;37.396;-122.212;2022-11-20T01:28:00;6.03;;;2.58;;
50531;SDS011;36483;37.396;-122.212;2022-11-20T01:30:26;4.40;;;2.78;;
50531;SDS011;36483;37.396;-122.212;2022-11-20T01:32:52;4.45;;;2.72;;
50531;SDS011;36483;37.396;-122.212;2022-11-20T01:35:18;3.30;;;2.60;;
50531;SDS011;36483;37.396;-122.212;2022-11-20T01:37:44;4.50;;;2.70;;
50531;SDS011;36483;37.396;-122.212;2022-11-20T01:40:10;3.75;;;2.40;;
50531;SDS011;36483;37.396;-122.212;2022-11-20T01:42:37;5.43;;;2.67;;
50531;SDS011;36483;37.396;-122.212;2022-11-20T01:48:16;4.78;;;2.63;;
50531;SDS011;36483;37.396;-122.212;2022-11-20T01:50:43;3.50;;;2.65;;
50531;SDS011;36483;37.396;-122.212;2022-11-20T01:53:11;5.40;;;3.10;;
50531;SDS011;36483;37.396;-122.212;2022-11-20T01:55:45;4.07;;;2.58;;
50531;SDS011;36483;37.396;-122.212;2022-11-20T01:58:14;5.15;;;2.67;;
50531;SDS011;36483;37.396;-122.212;2022-11-20T02:00:41;5.30;;;2.70;;
50531;SDS011;36483;37.396;-122.212;2022-11-20T02:03:08;3.65;;;2.80;;
50531;SDS011;36483;37.396;-122.212;2022-11-20T02:08:22;4.65;;;3.08;;
50531;SDS011;36483;37.396;-122.212;2022-11-20T02:10:49;3.90;;;3.03;;
50531;SDS011;36483;37.396;-122.212;2022-11-20T02:13:15;5.40;;;3.42;;
50531;SDS011;36483;37.396;-122.212;2022-11-20T02:16:00;5.07;;;3.63;;
50531;SDS011;36483;37.396;-122.212;2022-11-20T02:18:26;6.10;;;3.60;;
50531;SDS011;36483;37.396;-122.212;2022-11-20T02:21:01;4.95;;;2.97;;
50531;SDS011;36483;37.396;-122.212;2022-11-20T02:26:05;5.85;;;3.22;;
50531;SDS011;36483;37.396;-122.212;2022-11-20T02:28:34;4.93;;;3.03;;
50531;SDS011;36483;37.396;-122.212;2022-11-20T02:31:00;5.72;;;3.25;;
50531;SDS011;36483;37.396;-122.212;2022-11-20T02:33:26;5.70;;;3.33;;
50531;SDS011;36483;37.396;-122.212;2022-11-20T02:35:53;6.63;;;3.92;;
50531;SDS011;36483;37.396;-122.212;2022-11-20T02:38:19;4.43;;;3.10;;
50531;SDS011;36483;37.396;-122.212;2022-11-20T02:40:45;4.72;;;3.10;;
50531;SDS011;36483;37.396;-122.212;2022-11-20T02:43:11;4.88;;;3.03;;
50531;SDS011;36483;37.396;-122.212;2022-11-20T02:45:38;6.25;;;3.22;;
50531;SDS011;36483;37.396;-122.212;2022-11-20T02:48:05;5.40;;;3.05;;
50531;SDS011;36483;37.396;-122.212;2022-11-20T02:50:32;6.43;;;3.40;;
50531;SDS011;36483;37.396;-122.212;2022-11-20T02:52:58;4.20;;;2.70;;
50531;SDS011;36483;37.396;-122.212;2022-11-20T02:55:24;5.68;;;3.00;;
50531;SDS011;36483;37.396;-122.212;2022-11-20T02:57:50;5.18;;;2.83;;
50531;SDS011;36483;37.396;-122.212;2022-11-20T03:00:16;7.97;;;3.10;;
50531;SDS011;36483;37.396;-122.212;2022-11-20T03:02:43;5.00;;;2.90;;
50531;SDS011;36483;37.396;-122.212;2022-11-20T03:05:09;6.25;;;3.17;;
50531;SDS011;36483;37.396;-122.212;2022-11-20T03:07:35;4.85;;;3.10;;
50531;SDS011;36483;37.396;-122.212;2022-11-20T03:10:01;4.97;;;2.88;;
50531;SDS011;36483;37.396;-122.212;2022-11-20T03:12:28;4.88;;;2.90;;
50531;SDS011;36483;37.396;-122.212;2022-11-20T03:14:54;4.22;;;3.10;;
50531;SDS011;36483;37.396;-122.212;2022-11-20T03:17:20;3.88;;;2.50;;
50531;SDS011;36483;37.396;-122.212;2022-11-20T03:19:46;4.82;;;2.80;;
50531;SDS011;36483;37.396;-122.212;2022-11-20T03:22:12;4.68;;;2.78;;
50531;SDS011;36483;37.396;-122.212;2022-11-20T03:24:38;6.10;;;2.67;;
50531;SDS011;36483;37.396;-122.212;2022-11-20T03:27:04;6.20;;;3.35;;
50531;SDS011;36483;37.396;-122.212;2022-11-20T03:29:30;5.18;;;2.90;;
50531;SDS011;36483;37.396;-122.212;2022-11-20T03:31:57;5.45;;;3.67;;
50531;SDS011;36483;37.396;-122.212;2022-11-20T03:34:23;5.65;;;3.40;;
50531;SDS011;36483;37.396;-122.212;2022-11-20T03:36:49;6.00;;;3.47;;
50531;SDS011;36483;37.396;-122.212;2022-11-20T03:39:15;3.97;;;3.00;;
50531;SDS011;36483;37.396;-122.212;2022-11-20T03:41:42;4.93;;;3.17;;
50531;SDS011;36483;37.396;-122.212;2022-11-20T03:44:09;4.95;;;3.30;;
50531;SDS011;36483;37.396;-122.212;2022-11-20T03:46:36;7.25;;;3.40;;
50531;SDS011;36483;37.396;-122.212;2022-11-20T03:49:03;4.90;;;3.42;;
50531;SDS011;36483;37.396;-122.212;2022-11-20T03:51:30;6.78;;;3.45;;
50531;SDS011;36483;37.396;-122.212;2022-11-20T03:53:59;5.70;;;3.47;;
50531;SDS011;36483;37.396;-122.212;2022-11-20T03:56:27;6.30;;;3.63;;
50531;SDS011;36483;37.396;-122.212;2022-11-20T03:58:55;5.43;;;3.22;;
50531;SDS011;36483;37.396;-122.212;2022-11-20T04:01:23;8.00;;;4.00;;
50531;SDS011;36483;37.396;-122.212;2022-11-20T04:03:54;5.50;;;3.60;;
50531;SDS011;36483;37.396;-122.212;2022-11-20T04:06:21;5.80;;;3.58;;
50531;SDS011;36483;37.396;-122.212;2022-11-20T04:08:56;6.22;;;3.58;;
50531;SDS011;36483;37.396;-122.212;2022-11-20T04:11:26;5.28;;;3.70;;
50531;SDS011;36483;37.396;-122.212;2022-11-20T04:13:55;5.00;;;3.22;;
50531;SDS011;36483;37.396;-122.212;2022-11-20T04:16:22;6.55;;;3.97;;
50531;SDS011;36483;37.396;-122.212;2022-11-20T04:18:53;7.57;;;3.85;;
50531;SDS011;36483;37.396;-122.212;2022-11-20T04:21:23;7.38;;;3.83;;
50531;SDS011;36483;37.396;-122.212;2022-11-20T04:23:50;5.75;;;3.53;;
50531;SDS011;36483;37.396;-122.212;2022-11-20T04:26:20;5.60;;;3.70;;
50531;SDS011;36483;37.396;-122.212;2022-11-20T04:28:48;7.47;;;4.18;;
50531;SDS011;36483;37.396;-122.212;2022-11-20T04:31:15;6.43;;;3.65;;
50531;SDS011;36483;37.396;-122.212;2022-11-20T04:33:42;5.93;;;3.80;;
50531;SDS011;36483;37.396;-122.212;2022-11-20T04:36:10;5.00;;;3.65;;
50531;SDS011;36483;37.396;-122.212;2022-11-20T04:38:40;6.00;;;3.60;;
50531;SDS011;36483;37.396;-122.212;2022-11-20T04:41:07;5.20;;;3.95;;
50531;SDS011;36483;37.396;-122.212;2022-11-20T04:43:36;5.40;;;3.72;;
50531;SDS011;36483;37.396;-122.212;2022-11-20T04:46:02;10.07;;;4.05;;
50531;SDS011;36483;37.396;-122.212;2022-11-20T04:48:28;8.68;;;3.88;;
50531;SDS011;36483;37.396;-122.212;2022-11-20T04:50:55;5.85;;;3.88;;
50531;SDS011;36483;37.396;-122.212;2022-11-20T04:53:22;5.93;;;4.05;;
50531;SDS011;36483;37.396;-122.212;2022-11-20T04:55:48;6.05;;;3.70;;
50531;SDS011;36483;37.396;-122.212;2022-11-20T04:58:14;4.97;;;3.67;;
50531;SDS011;36483;37.396;-122.212;2022-11-20T05:00:42;8.27;;;4.13;;
50531;SDS011;36483;37.396;-122.212;2022-11-20T05:03:08;6.60;;;4.03;;
50531;SDS011;36483;37.396;-122.212;2022-11-20T05:05:34;6.72;;;3.85;;
50531;SDS011;36483;37.396;-122.212;2022-11-20T05:08:00;5.20;;;3.78;;
50531;SDS011;36483;37.396;-122.212;2022-11-20T05:10:27;5.72;;;4.10;;
50531;SDS011;36483;37.396;-122.212;2022-11-20T05:12:53;5.30;;;4.00;;
50531;SDS011;36483;37.396;-122.212;2022-11-20T05:15:19;7.40;;;4.00;;
50531;SDS011;36483;37.396;-122.212;2022-11-20T05:17:51;7.28;;;4.22;;
50531;SDS011;36483;37.396;-122.212;2022-11-20T05:20:18;7.40;;;4.68;;
50531;SDS011;36483;37.396;-122.212;2022-11-20T05:22:45;8.65;;;5.20;;
50531;SDS011;36483;37.396;-122.212;2022-11-20T05:25:11;9.23;;;5.57;;
50531;SDS011;36483;37.396;-122.212;2022-11-20T05:27:37;10.05;;;6.07;;
50531;SDS011;36483;37.396;-122.212;2022-11-20T05:30:03;11.50;;;7.53;;
50531;SDS011;36483;37.396;-122.212;2022-11-20T05:32:30;12.90;;;9.25;;
50531;SDS011;36483;37.396;-122.212;2022-11-20T05:34:56;15.57;;;11.23;;
50531;SDS011;36483;37.396;-122.212;2022-11-20T05:37:22;16.60;;;11.80;;
50531;SDS011;36483;37.396;-122.212;2022-11-20T05:39:49;15.07;;;11.82;;
50531;SDS011;36483;37.396;-122.212;2022-11-20T05:42:15;19.65;;;13.32;;
50531;SDS011;36483;37.396;-122.212;2022-11-20T05:44:56;19.83;;;13.80;;
50531;SDS011;36483;37.396;-122.212;2022-11-20T05:47:23;20.00;;;13.30;;
50531;SDS011;36483;37.396;-122.212;2022-11-20T05:49:49;19.67;;;12.68;;
50531;SDS011;36483;37.396;-122.212;2022-11-20T05:52:16;15.73;;;11.82;;
50531;SDS011;36483;37.396;-122.212;2022-11-20T05:54:42;16.08;;;10.95;;
50531;SDS011;36483;37.396;-122.212;2022-11-20T05:57:08;12.68;;;9.48;;
50531;SDS011;36483;37.396;-122.212;2022-11-20T05:59:34;12.48;;;8.52;;
50531;SDS011;36483;37.396;-122.212;2022-11-20T06:02:00;10.70;;;7.05;;
50531;SDS011;36483;37.396;-122.212;2022-11-20T06:04:26;13.05;;;7.55;;
50531;SDS011;36483;37.396;-122.212;2022-11-20T06:06:52;9.55;;;6.95;;
50531;SDS011;36483;37.396;-122.212;2022-11-20T06:09:18;8.82;;;6.25;;
50531;SDS011;36483;37.396;-122.212;2022-11-20T06:11:44;10.63;;;6.13;;
50531;SDS011;36483;37.396;-122.212;2022-11-20T06:14:10;8.98;;;5.63;;
50531;SDS011;36483;37.396;-122.212;2022-11-20T06:16:36;7.25;;;4.50;;
50531;SDS011;36483;37.396;-122.212;2022-11-20T06:19:02;8.50;;;4.93;;
50531;SDS011;36483;37.396;-122.212;2022-11-20T06:21:29;8.00;;;4.63;;
50531;SDS011;36483;37.396;-122.212;2022-11-20T06:23:55;6.97;;;4.40;;
50531;SDS011;36483;37.396;-122.212;2022-11-20T06:26:22;7.53;;;4.88;;
50531;SDS011;36483;37.396;-122.212;2022-11-20T06:28:49;7.85;;;4.63;;
50531;SDS011;36483;37.396;-122.212;2022-11-20T06:31:17;7.80;;;4.65;;
50531;SDS011;36483;37.396;-122.212;2022-11-20T06:33:45;9.93;;;5.10;;
50531;SDS011;36483;37.396;-122.212;2022-11-20T06:36:12;7.78;;;4.38;;
50531;SDS011;36483;37.396;-122.212;2022-11-20T06:38:39;7.15;;;4.30;;
50531;SDS011;36483;37.396;-122.212;2022-11-20T06:41:06;7.35;;;4.40;;
50531;SDS011;36483;37.396;-122.212;2022-11-20T06:43:33;6.13;;;3.88;;
50531;SDS011;36483;37.396;-122.212;2022-11-20T06:45:59;8.27;;;4.13;;
50531;SDS011;36483;37.396;-122.212;2022-11-20T06:48:25;6.43;;;4.30;;
50531;SDS011;36483;37.396;-122.212;2022-11-20T06:50:52;7.85;;;4.20;;
50531;SDS011;36483;37.396;-122.212;2022-11-20T06:53:18;6.28;;;4.15;;
50531;SDS011;36483;37.396;-122.212;2022-11-20T06:55:45;6.45;;;4.00;;
50531;SDS011;36483;37.396;-122.212;2022-11-20T06:58:12;5.78;;;3.97;;
50531;SDS011;36483;37.396;-122.212;2022-11-20T07:00:39;6.15;;;3.97;;
50531;SDS011;36483;37.396;-122.212;2022-11-20T07:03:06;6.88;;;3.75;;
50531;SDS011;36483;37.396;-122.212;2022-11-20T07:05:33;7.47;;;4.40;;
50531;SDS011;36483;37.396;-122.212;2022-11-20T07:07:59;6.75;;;4.20;;
50531;SDS011;36483;37.396;-122.212;2022-11-20T07:10:25;6.05;;;3.70;;
50531;SDS011;36483;37.396;-122.212;2022-11-20T07:12:51;6.22;;;3.83;;
50531;SDS011;36483;37.396;-122.212;2022-11-20T07:15:19;7.30;;;3.70;;
50531;SDS011;36483;37.396;-122.212;2022-11-20T07:17:46;5.78;;;3.55;;
50531;SDS011;36483;37.396;-122.212;2022-11-20T07:20:12;12.52;;;4.50;;
50531;SDS011;36483;37.396;-122.212;2022-11-20T07:22:38;8.43;;;3.97;;
50531;SDS011;36483;37.396;-122.212;2022-11-20T07:25:05;7.07;;;4.15;;
50531;SDS011;36483;37.396;-122.212;2022-11-20T07:27:32;6.97;;;3.97;;
50531;SDS011;36483;37.396;-122.212;2022-11-20T07:29:58;5.65;;;3.90;;
50531;SDS011;36483;37.396;-122.212;2022-11-20T07:32:24;6.53;;;3.97;;
50531;SDS011;36483;37.396;-122.212;2022-11-20T07:34:50;7.40;;;4.13;;
50531;SDS011;36483;37.396;-122.212;2022-11-20T07:37:16;5.90;;;3.85;;
50531;SDS011;36483;37.396;-122.212;2022-11-20T07:39:43;6.90;;;3.90;;
50531;SDS011;36483;37.396;-122.212;2022-11-20T07:42:09;7.97;;;4.05;;
50531;SDS011;36483;37.396;-122.212;2022-11-20T07:44:37;6.85;;;4.18;;
50531;SDS011;36483;37.396;-122.212;2022-11-20T07:47:03;6.05;;;3.97;;
50531;SDS011;36483;37.396;-122.212;2022-11-20T07:49:30;5.80;;;3.92;;
50531;SDS011;36483;37.396;-122.212;2022-11-20T07:51:56;6.97;;;4.00;;
50531;SDS011;36483;37.396;-122.212;2022-11-20T07:54:22;5.22;;;3.50;;
50531;SDS011;36483;37.396;-122.212;2022-11-20T07:56:49;7.93;;;4.10;;
50531;SDS011;36483;37.396;-122.212;2022-11-20T07:59:15;6.15;;;3.80;;
50531;SDS011;36483;37.396;-122.212;2022-11-20T08:01:42;6.85;;;3.97;;
50531;SDS011;36483;37.396;-122.212;2022-11-20T08:04:08;5.97;;;3.58;;
50531;SDS011;36483;37.396;-122.212;2022-11-20T08:06:35;6.38;;;4.25;;
50531;SDS011;36483;37.396;-122.212;2022-11-20T08:09:01;6.97;;;4.20;;
50531;SDS011;36483;37.396;-122.212;2022-11-20T08:11:28;7.35;;;4.18;;
50531;SDS011;36483;37.396;-122.212;2022-11-20T08:14:13;5.60;;;3.78;;
50531;SDS011;36483;37.396;-122.212;2022-11-20T08:16:39;5.93;;;3.83;;
50531;SDS011;36483;37.396;-122.212;2022-11-20T08:19:06;5.55;;;3.90;;
50531;SDS011;36483;37.396;-122.212;2022-11-20T08:21:33;6.30;;;3.83;;
50531;SDS011;36483;37.396;-122.212;2022-11-20T08:23:59;5.75;;;3.88;;
50531;SDS011;36483;37.396;-122.212;2022-11-20T08:26:25;5.85;;;3.72;;
50531;SDS011;36483;37.396;-122.212;2022-11-20T08:28:55;8.60;;;4.63;;
50531;SDS011;36483;37.396;-122.212;2022-11-20T08:31:22;5.82;;;4.10;;
50531;SDS011;36483;37.396;-122.212;2022-11-20T08:33:49;6.50;;;3.85;;
50531;SDS011;36483;37.396;-122.212;2022-11-20T08:36:16;5.85;;;3.90;;
50531;SDS011;36483;37.396;-122.212;2022-11-20T08:38:46;6.30;;;3.88;;
50531;SDS011;36483;37.396;-122.212;2022-11-20T08:41:16;6.43;;;4.10;;
50531;SDS011;36483;37.396;-122.212;2022-11-20T08:46:14;6.07;;;4.07;;
50531;SDS011;36483;37.396;-122.212;2022-11-20T08:48:41;6.40;;;4.05;;
50531;SDS011;36483;37.396;-122.212;2022-11-20T08:51:07;7.20;;;4.30;;
50531;SDS011;36483;37.396;-122.212;2022-11-20T08:53:33;6.10;;;4.20;;
50531;SDS011;36483;37.396;-122.212;2022-11-20T08:55:59;4.97;;;3.92;;
50531;SDS011;36483;37.396;-122.212;2022-11-20T08:58:26;6.75;;;4.18;;
50531;SDS011;36483;37.396;-122.212;2022-11-20T09:00:52;6.55;;;4.28;;
50531;SDS011;36483;37.396;-122.212;2022-11-20T09:03:20;7.93;;;4.40;;
50531;SDS011;36483;37.396;-122.212;2022-11-20T09:05:46;6.05;;;4.05;;
50531;SDS011;36483;37.396;-122.212;2022-11-20T09:08:13;6.88;;;4.03;;
50531;SDS011;36483;37.396;-122.212;2022-11-20T09:10:39;5.97;;;4.22;;
50531;SDS011;36483;37.396;-122.212;2022-11-20T09:13:05;5.95;;;4.13;;
50531;SDS011;36483;37.396;-122.212;2022-11-20T09:15:31;6.93;;;4.20;;
50531;SDS011;36483;37.396;-122.212;2022-11-20T09:18:00;5.07;;;4.03;;
50531;SDS011;36483;37.396;-122.212;2022-11-20T09:20:28;6.38;;;4.00;;
50531;SDS011;36483;37.396;-122.212;2022-11-20T09:22:55;5.35;;;3.88;;
50531;SDS011;36483;37.396;-122.212;2022-11-20T09:25:21;6.43;;;4.25;;
50531;SDS011;36483;37.396;-122.212;2022-11-20T09:27:48;6.85;;;3.97;;
50531;SDS011;36483;37.396;-122.212;2022-11-20T09:30:19;6.95;;;3.78;;
50531;SDS011;36483;37.396;-122.212;2022-11-20T09:32:45;9.82;;;4.00;;
50531;SDS011;36483;37.396;-122.212;2022-11-20T09:35:11;5.65;;;3.83;;
50531;SDS011;36483;37.396;-122.212;2022-11-20T09:37:39;6.65;;;4.20;;
50531;SDS011;36483;37.396;-122.212;2022-11-20T09:40:06;5.45;;;3.88;;
50531;SDS011;36483;37.396;-122.212;2022-11-20T09:42:40;7.28;;;4.38;;
50531;SDS011;36483;37.396;-122.212;2022-11-20T09:51:00;6.60;;;4.93;;
50531;SDS011;36483;37.396;-122.212;2022-11-20T09:56:41;7.60;;;5.00;;
50531;SDS011;36483;37.396;-122.212;2022-11-20T09:59:23;9.57;;;5.65;;
50531;SDS011;36483;37.396;-122.212;2022-11-20T10:01:52;11.35;;;6.18;;
50531;SDS011;36483;37.396;-122.212;2022-11-20T10:04:19;8.40;;;5.15;;
50531;SDS011;36483;37.396;-122.212;2022-11-20T10:09:26;9.27;;;5.40;;
50531;SDS011;36483;37.396;-122.212;2022-11-20T10:20:17;7.25;;;4.35;;
50531;SDS011;36483;37.396;-122.212;2022-11-20T10:23:11;6.82;;;4.35;;
50531;SDS011;36483;37.396;-122.212;2022-11-20T10:26:03;6.75;;;4.43;;
50531;SDS011;36483;37.396;-122.212;2022-11-20T10:28:46;6.60;;;4.25;;
50531;SDS011;36483;37.396;-122.212;2022-11-20T10:31:35;7.55;;;4.63;;
50531;SDS011;36483;37.396;-122.212;2022-11-20T10:34:05;7.40;;;4.05;;
50531;SDS011;36483;37.396;-122.212;2022-11-20T10:36:59;10.65;;;5.18;;
50531;SDS011;36483;37.396;-122.212;2022-11-20T10:39:33;8.18;;;4.60;;
50531;SDS011;36483;37.396;-122.212;2022-11-20T10:42:07;7.05;;;4.32;;
50531;SDS011;36483;37.396;-122.212;2022-11-20T10:44:36;7.28;;;4.53;;
50531;SDS011;36483;37.396;-122.212;2022-11-20T10:47:20;7.90;;;4.45;;
50531;SDS011;36483;37.396;-122.212;2022-11-20T10:49:56;6.85;;;4.32;;
50531;SDS011;36483;37.396;-122.212;2022-11-20T10:55:19;5.72;;;3.90;;
50531;SDS011;36483;37.396;-122.212;2022-11-20T10:58:10;7.70;;;4.45;;
50531;SDS011;36483;37.396;-122.212;2022-11-20T11:00:39;7.57;;;4.60;;
50531;SDS011;36483;37.396;-122.212;2022-11-20T11:05:55;6.72;;;4.35;;
50531;SDS011;36483;37.396;-122.212;2022-11-20T11:08:24;7.22;;;4.22;;
50531;SDS011;36483;37.396;-122.212;2022-11-20T11:10:59;7.03;;;4.40;;
50531;SDS011;36483;37.396;-122.212;2022-11-20T11:13:28;6.05;;;4.10;;
50531;SDS011;36483;37.396;-122.212;2022-11-20T11:15:57;6.55;;;3.92;;
50531;SDS011;36483;37.396;-122.212;2022-11-20T11:18:25;6.82;;;4.22;;
50531;SDS011;36483;37.396;-122.212;2022-11-20T11:20:52;7.78;;;4.13;;
50531;SDS011;36483;37.396;-122.212;2022-11-20T11:23:39;6.30;;;4.25;;
50531;SDS011;36483;37.396;-122.212;2022-11-20T11:26:07;9.27;;;4.00;;
50531;SDS011;36483;37.396;-122.212;2022-11-20T11:28:57;7.13;;;4.47;;
50531;SDS011;36483;37.396;-122.212;2022-11-20T11:31:29;5.90;;;4.00;;
50531;SDS011;36483;37.396;-122.212;2022-11-20T11:36:33;5.85;;;3.80;;
50531;SDS011;36483;37.396;-122.212;2022-11-20T11:39:00;6.05;;;3.92;;
50531;SDS011;36483;37.396;-122.212;2022-11-20T11:41:29;6.95;;;3.90;;
50531;SDS011;36483;37.396;-122.212;2022-11-20T11:44:00;6.25;;;4.20;;
50531;SDS011;36483;37.396;-122.212;2022-11-20T11:46:55;7.75;;;4.18;;
50531;SDS011;36483;37.396;-122.212;2022-11-20T11:49:22;6.70;;;3.58;;
50531;SDS011;36483;37.396;-122.212;2022-11-20T11:54:48;6.47;;;3.92;;
50531;SDS011;36483;37.396;-122.212;2022-11-20T12:02:39;5.85;;;3.90;;
50531;SDS011;36483;37.396;-122.212;2022-11-20T12:16:14;7.05;;;3.78;;
50531;SDS011;36483;37.396;-122.212;2022-11-20T12:18:41;6.88;;;3.90;;
50531;SDS011;36483;37.396;-122.212;2022-11-20T12:21:18;6.07;;;4.05;;
50531;SDS011;36483;37.396;-122.212;2022-11-20T12:24:09;5.63;;;4.03;;
50531;SDS011;36483;37.396;-122.212;2022-11-20T12:40:44;6.93;;;4.00;;
50531;SDS011;36483;37.396;-122.212;2022-11-20T12:46:06;7.03;;;3.90;;
50531;SDS011;36483;37.396;-122.212;2022-11-20T12:48:49;7.57;;;3.90;;
50531;SDS011;36483;37.396;-122.212;2022-11-20T13:08:08;4.97;;;3.72;;
50531;SDS011;36483;37.396;-122.212;2022-11-20T13:10:51;8.32;;;3.92;;
50531;SDS011;36483;37.396;-122.212;2022-11-20T13:13:25;5.65;;;3.72;;
50531;SDS011;36483;37.396;-122.212;2022-11-20T13:19:03;4.50;;;3.63;;
50531;SDS011;36483;37.396;-122.212;2022-11-20T13:21:38;5.88;;;3.78;;
50531;SDS011;36483;37.396;-122.212;2022-11-20T13:24:06;7.28;;;3.63;;
50531;SDS011;36483;37.396;-122.212;2022-11-20T13:26:32;5.00;;;3.78;;
50531;SDS011;36483;37.396;-122.212;2022-11-20T13:29:09;7.18;;;3.42;;
50531;SDS011;36483;37.396;-122.212;2022-11-20T13:31:38;8.48;;;4.10;;
50531;SDS011;36483;37.396;-122.212;2022-11-20T13:34:11;4.72;;;3.67;;
50531;SDS011;36483;37.396;-122.212;2022-11-20T13:36:49;6.17;;;3.73;;
50531;SDS011;36483;37.396;-122.212;2022-11-20T13:39:27;6.35;;;3.60;;
50531;SDS011;36483;37.396;-122.212;2022-11-20T13:41:56;6.13;;;3.45;;
50531;SDS011;36483;37.396;-122.212;2022-11-20T13:44:25;5.50;;;3.47;;
50531;SDS011;36483;37.396;-122.212;2022-11-20T13:46:54;5.10;;;3.40;;
50531;SDS011;36483;37.396;-122.212;2022-11-20T13:51:50;5.75;;;3.30;;
50531;SDS011;36483;37.396;-122.212;2022-11-20T14:00:01;5.45;;;3.40;;
50531;SDS011;36483;37.396;-122.212;2022-11-20T14:02:40;5.80;;;3.38;;
50531;SDS011;36483;37.396;-122.212;2022-11-20T14:05:11;5.22;;;3.20;;
50531;SDS011;36483;37.396;-122.212;2022-11-20T14:07:50;8.93;;;3.60;;
50531;SDS011;36483;37.396;-122.212;2022-11-20T14:10:21;6.53;;;3.78;;
50531;SDS011;36483;37.396;-122.212;2022-11-20T14:12:52;5.43;;;3.58;;
50531;SDS011;36483;37.396;-122.212;2022-11-20T14:15:25;5.43;;;3.45;;
50531;SDS011;36483;37.396;-122.212;2022-11-20T14:17:52;7.90;;;4.18;;
50531;SDS011;36483;37.396;-122.212;2022-11-20T14:20:18;5.55;;;3.92;;
50531;SDS011;36483;37.396;-122.212;2022-11-20T14:22:51;4.65;;;3.30;;
50531;SDS011;36483;37.396;-122.212;2022-11-20T14:25:19;8.15;;;3.58;;
50531;SDS011;36483;37.396;-122.212;2022-11-20T14:27:56;5.55;;;3.30;;
50531;SDS011;36483;37.396;-122.212;2022-11-20T14:30:27;8.05;;;4.13;;
50531;SDS011;36483;37.396;-122.212;2022-11-20T14:37:55;5.70;;;3.58;;
50531;SDS011;36483;37.396;-122.212;2022-11-20T14:40:23;5.63;;;3.83;;
50531;SDS011;36483;37.396;-122.212;2022-11-20T14:42:49;5.38;;;3.85;;
50531;SDS011;36483;37.396;-122.212;2022-11-20T14:45:16;5.25;;;3.58;;
50531;SDS011;36483;37.396;-122.212;2022-11-20T14:47:42;5.60;;;3.33;;
50531;SDS011;36483;37.396;-122.212;2022-11-20T14:50:19;4.80;;;3.45;;
50531;SDS011;36483;37.396;-122.212;2022-11-20T14:52:55;6.60;;;3.72;;
50531;SDS011;36483;37.396;-122.212;2022-11-20T14:55:36;6.07;;;4.00;;
50531;SDS011;36483;37.396;-122.212;2022-11-20T14:58:04;5.88;;;3.67;;
50531;SDS011;36483;37.396;-122.212;2022-11-20T15:00:59;8.18;;;3.70;;
50531;SDS011;36483;37.396;-122.212;2022-11-20T15:03:36;6.38;;;3.92;;
50531;SDS011;36483;37.396;-122.212;2022-11-20T15:06:03;6.75;;;3.92;;
50531;SDS011;36483;37.396;-122.212;2022-11-20T15:08:30;4.57;;;3.28;;
50531;SDS011;36483;37.396;-122.212;2022-11-20T15:10:56;6.65;;;3.67;;
50531;SDS011;36483;37.396;-122.212;2022-11-20T15:13:33;6.50;;;4.10;;
50531;SDS011;36483;37.396;-122.212;2022-11-20T15:16:02;5.70;;;3.65;;
50531;SDS011;36483;37.396;-122.212;2022-11-20T15:18:37;8.32;;;3.95;;
50531;SDS011;36483;37.396;-122.212;2022-11-20T15:21:07;8.73;;;3.92;;
50531;SDS011;36483;37.396;-122.212;2022-11-20T15:23:36;5.93;;;3.60;;
50531;SDS011;36483;37.396;-122.212;2022-11-20T15:26:06;5.38;;;3.88;;
50531;SDS011;36483;37.396;-122.212;2022-11-20T15:28:34;6.72;;;3.50;;
50531;SDS011;36483;37.396;-122.212;2022-11-20T15:31:02;5.95;;;3.90;;
50531;SDS011;36483;37.396;-122.212;2022-11-20T15:33:30;5.82;;;3.95;;
50531;SDS011;36483;37.396;-122.212;2022-11-20T15:35:59;7.30;;;4.35;;
50531;SDS011;36483;37.396;-122.212;2022-11-20T15:38:25;8.30;;;4.35;;
50531;SDS011;36483;37.396;-122.212;2022-11-20T15:40:51;6.00;;;3.45;;
50531;SDS011;36483;37.396;-122.212;2022-11-20T15:43:18;6.95;;;3.88;;
50531;SDS011;36483;37.396;-122.212;2022-11-20T15:45:44;6.93;;;4.25;;
50531;SDS011;36483;37.396;-122.212;2022-11-20T15:48:42;8.25;;;4.60;;
50531;SDS011;36483;37.396;-122.212;2022-11-20T15:53:39;7.70;;;4.40;;
50531;SDS011;36483;37.396;-122.212;2022-11-20T15:56:15;8.63;;;4.28;;
50531;SDS011;36483;37.396;-122.212;2022-11-20T15:58:41;6.22;;;4.20;;
50531;SDS011;36483;37.396;-122.212;2022-11-20T16:01:11;5.63;;;3.97;;
50531;SDS011;36483;37.396;-122.212;2022-11-20T16:03:39;5.57;;;3.95;;
50531;SDS011;36483;37.396;-122.212;2022-11-20T16:06:05;9.60;;;4.93;;
50531;SDS011;36483;37.396;-122.212;2022-11-20T16:08:31;8.50;;;4.60;;
50531;SDS011;36483;37.396;-122.212;2022-11-20T16:10:57;8.52;;;4.88;;